createdAt,value
2019-01-23T00:03:56.687Z,17.63
2019-01-23T00:09:02.110Z,21.30
2019-01-23T00:14:08.242Z,22.73
2019-01-23T00:19:13.671Z,21.93
2019-01-23T00:24:19.458Z,22.13
2019-01-23T00:29:25.251Z,24.10
2019-01-23T00:34:30.735Z,22.77
2019-01-23T00:39:36.259Z,23.60
2019-01-23T00:44:41.695Z,23.40
2019-01-23T00:49:47.134Z,21.97
2019-01-23T00:54:52.990Z,21.00
2019-01-23T00:59:58.774Z,22.20
2019-01-23T01:05:04.540Z,21.43
2019-01-23T01:10:11.999Z,22.60
2019-01-23T01:15:17.572Z,22.03
2019-01-23T01:20:23.714Z,25.20
2019-01-23T01:25:29.143Z,25.73
2019-01-23T01:30:34.590Z,23.60
2019-01-23T01:35:40.382Z,23.93
2019-01-23T01:40:45.814Z,23.17
2019-01-23T01:45:51.590Z,25.27
2019-01-23T01:50:57.491Z,22.23
2019-01-23T01:56:03.292Z,22.30
2019-01-23T02:01:09.086Z,23.43
2019-01-23T02:06:14.888Z,24.20
2019-01-23T02:11:21.046Z,23.67
2019-01-23T02:16:26.487Z,20.60
2019-01-23T02:21:32.738Z,21.57
2019-01-23T02:26:38.518Z,23.43
2019-01-23T02:31:43.968Z,24.40
2019-01-23T02:36:49.794Z,23.97
2019-01-23T02:41:55.234Z,25.03
2019-01-23T02:47:00.725Z,19.37
2019-01-23T02:52:06.570Z,23.47
2019-01-23T02:57:12.403Z,21.93
2019-01-23T03:02:18.209Z,23.83
2019-01-23T03:07:24.367Z,22.93
2019-01-23T03:12:30.171Z,23.13
2019-01-23T03:17:35.718Z,21.07
2019-01-23T03:22:41.515Z,20.90
2019-01-23T03:27:46.951Z,19.90
2019-01-23T03:32:52.474Z,21.03
2019-01-23T03:37:57.926Z,22.70
2019-01-23T03:43:04.157Z,20.17
2019-01-23T03:48:09.667Z,21.30
2019-01-23T03:53:16.143Z,20.73
2019-01-23T03:58:22.284Z,22.53
2019-01-23T04:03:27.730Z,21.57
2019-01-23T04:08:33.188Z,21.63
2019-01-23T04:13:38.972Z,23.77
2019-01-23T04:18:45.219Z,21.83
2019-01-23T04:23:50.667Z,21.47
2019-01-23T04:28:56.097Z,16.93
2019-01-23T04:34:01.909Z,22.67
2019-01-23T04:39:09.543Z,23.67
2019-01-23T04:44:15.023Z,22.67
2019-01-23T04:49:20.450Z,21.80
2019-01-23T04:54:26.627Z,19.67
2019-01-23T04:59:32.484Z,21.93
2019-01-23T05:04:38.163Z,24.83
2019-01-23T05:09:44.059Z,21.43
2019-01-23T05:14:49.852Z,19.93
2019-01-23T05:19:55.279Z,24.53
2019-01-23T05:25:01.107Z,22.73
2019-01-23T05:30:10.103Z,15.87
2019-01-23T05:35:15.548Z,20.80
2019-01-23T05:40:21.687Z,16.20
2019-01-23T05:45:27.123Z,23.33
2019-01-23T05:50:33.291Z,24.47
2019-01-23T05:55:39.071Z,23.73
2019-01-23T06:00:44.890Z,28.10
2019-01-23T06:05:50.379Z,30.40
2019-01-23T06:10:56.198Z,28.67
2019-01-23T06:16:02.338Z,30.97
2019-01-23T06:21:07.798Z,31.87
2019-01-23T06:26:13.694Z,35.03
2019-01-23T06:31:19.122Z,34.87
2019-01-23T06:36:24.930Z,33.63
2019-01-23T06:41:30.690Z,33.10
2019-01-23T06:46:36.194Z,37.17
2019-01-23T06:51:41.626Z,38.27
2019-01-23T06:56:47.232Z,37.47
2019-01-23T07:01:53.025Z,37.67
2019-01-23T07:06:59.170Z,36.60
2019-01-23T07:12:04.962Z,36.87
2019-01-23T07:17:10.446Z,40.63
2019-01-23T07:22:16.251Z,39.20
2019-01-23T07:27:22.423Z,46.60
2019-01-23T07:32:27.985Z,45.30
2019-01-23T07:37:33.442Z,47.17
2019-01-23T07:42:38.874Z,48.23
2019-01-23T07:47:44.313Z,48.70
2019-01-23T07:52:49.746Z,47.67
2019-01-23T07:57:56.219Z,47.87
2019-01-23T08:03:02.082Z,49.73
2019-01-23T08:08:08.310Z,53.37
2019-01-23T08:13:13.823Z,52.00
2019-01-23T08:18:19.584Z,50.03
2019-01-23T08:23:25.801Z,55.83
2019-01-23T08:28:31.576Z,55.03
2019-01-23T08:33:37.146Z,50.23
2019-01-23T08:38:43.278Z,54.60
2019-01-23T08:43:48.722Z,55.60
2019-01-23T08:48:54.533Z,55.90
2019-01-23T08:54:00.647Z,54.73
2019-01-23T08:59:06.086Z,56.30
2019-01-23T09:04:11.523Z,52.83
2019-01-23T09:09:17.014Z,54.53
2019-01-23T09:14:22.455Z,48.30
2019-01-23T09:19:27.942Z,55.90
2019-01-23T09:24:33.379Z,50.10
2019-01-23T09:29:38.811Z,51.27
2019-01-23T09:34:59.891Z,53.73
2019-01-23T09:40:51.024Z,48.17
2019-01-23T09:46:08.958Z,51.17
2019-01-23T09:51:45.012Z,52.20
2019-01-23T09:56:50.840Z,48.50
2019-01-23T10:01:56.615Z,46.40
2019-01-23T10:07:02.414Z,45.97
2019-01-23T10:12:08.218Z,49.60
2019-01-23T10:17:13.819Z,49.70
2019-01-23T10:22:19.947Z,50.60
2019-01-23T10:27:25.753Z,50.60
2019-01-23T10:32:31.208Z,45.23
2019-01-23T10:37:36.764Z,50.23
2019-01-23T10:42:42.536Z,49.87
2019-01-23T10:47:48.727Z,50.30
2019-01-23T10:52:54.154Z,49.00
2019-01-23T10:57:59.952Z,48.17
2019-01-23T11:03:09.983Z,47.47
2019-01-23T11:08:10.875Z,45.23
2019-01-23T11:13:16.671Z,48.70
2019-01-23T11:18:23.158Z,39.97
2019-01-23T11:23:28.590Z,42.30
2019-01-23T11:28:34.517Z,45.00
2019-01-23T11:33:40.054Z,45.17
2019-01-23T11:38:46.007Z,46.40
2019-01-23T11:43:51.911Z,47.53
2019-01-23T11:48:57.426Z,45.93
2019-01-23T11:54:02.895Z,48.57
2019-01-23T11:59:09.050Z,43.10
2019-01-23T12:04:14.822Z,46.60
2019-01-23T12:09:20.321Z,40.97
2019-01-23T12:14:25.978Z,44.67
2019-01-23T12:19:32.832Z,38.17
2019-01-23T12:24:38.306Z,43.40
2019-01-23T12:29:43.815Z,38.43
2019-01-23T12:34:49.664Z,37.10
2019-01-23T12:39:55.438Z,35.17
2019-01-23T12:45:01.126Z,36.33
2019-01-23T12:50:08.958Z,30.43
2019-01-23T12:55:14.572Z,33.00
2019-01-23T13:00:23.550Z,31.77
2019-01-23T13:05:29.079Z,31.17
2019-01-23T13:10:36.900Z,32.50
2019-01-23T13:15:43.347Z,30.10
2019-01-23T13:20:48.783Z,27.87
2019-01-23T13:25:54.598Z,30.47
2019-01-23T13:31:00.486Z,28.37
2019-01-23T13:36:07.622Z,24.30
2019-01-23T13:41:13.087Z,24.10
2019-01-23T13:46:19.220Z,24.93
2019-01-23T13:51:25.179Z,27.03
2019-01-23T13:56:30.675Z,25.67
2019-01-23T14:01:36.278Z,25.40
2019-01-23T14:06:41.759Z,21.27
2019-01-23T14:11:47.872Z,23.73
2019-01-23T14:16:54.132Z,18.50
2019-01-23T14:21:59.865Z,19.60
2019-01-23T14:27:05.703Z,18.00
2019-01-23T14:32:11.226Z,21.07
2019-01-23T14:37:16.995Z,22.17
2019-01-23T14:42:22.486Z,20.23
2019-01-23T14:47:27.922Z,18.67
2019-01-23T14:52:34.048Z,19.23
2019-01-23T14:57:39.946Z,17.10
2019-01-23T15:02:45.570Z,19.77
2019-01-23T15:07:51.721Z,15.70
2019-01-23T15:12:57.262Z,17.73
2019-01-23T15:18:02.828Z,19.03
2019-01-23T15:23:08.762Z,17.90
2019-01-23T15:28:14.207Z,17.27
2019-01-23T15:33:20.007Z,17.50
2019-01-23T15:38:26.267Z,19.23
2019-01-23T15:43:32.483Z,16.30
2019-01-23T15:48:39.269Z,17.37
2019-01-23T15:53:43.900Z,17.10
2019-01-23T15:58:49.419Z,15.67
2019-01-23T16:03:54.936Z,18.03
2019-01-23T16:09:00.853Z,18.57
2019-01-23T16:14:07.615Z,17.30
2019-01-23T16:19:13.820Z,16.00
2019-01-23T16:24:19.638Z,11.67
2019-01-23T16:29:25.887Z,7.77
2019-01-23T16:34:31.673Z,13.27
2019-01-23T16:39:37.312Z,16.07
2019-01-23T16:44:42.870Z,10.27
2019-01-23T16:49:48.683Z,16.57
2019-01-23T16:54:54.215Z,14.57
2019-01-23T16:59:59.646Z,14.20
2019-01-23T17:05:08.131Z,15.63
2019-01-23T17:10:17.151Z,14.90
2019-01-23T17:15:22.771Z,16.53
2019-01-23T17:20:34.858Z,18.03
2019-01-23T17:25:40.410Z,17.10
2019-01-23T17:30:45.991Z,18.63
2019-01-23T17:35:51.826Z,16.37
2019-01-23T17:40:58.311Z,18.50
2019-01-23T17:46:04.121Z,17.83
2019-01-23T17:51:10.264Z,17.00
2019-01-23T17:56:16.183Z,19.07
2019-01-23T18:01:21.699Z,15.73
2019-01-23T18:06:27.114Z,17.37
2019-01-23T18:11:32.977Z,16.70
2019-01-23T18:16:38.802Z,18.47
2019-01-23T18:21:44.251Z,17.83
2019-01-23T18:26:49.786Z,17.83
2019-01-23T18:32:02.576Z,16.93
2019-01-23T18:37:53.548Z,14.50
2019-01-23T18:43:16.500Z,11.93
2019-01-23T18:48:49.244Z,11.50
2019-01-23T18:53:55.031Z,15.70
2019-01-23T18:59:01.562Z,16.30
2019-01-23T19:04:07.031Z,14.83
2019-01-23T19:09:12.814Z,17.30
2019-01-23T19:14:24.269Z,16.20
2019-01-23T19:19:23.726Z,16.57
2019-01-23T19:24:29.851Z,15.70
2019-01-23T19:29:37.071Z,16.70
2019-01-23T19:34:42.919Z,15.83
2019-01-23T19:39:48.988Z,17.10
2019-01-23T19:44:54.821Z,18.77
2019-01-23T19:50:00.307Z,19.50
2019-01-23T19:55:07.574Z,17.10
2019-01-23T20:00:18.654Z,19.23
2019-01-23T20:05:28.263Z,17.47
2019-01-23T20:10:34.314Z,18.70
2019-01-23T20:15:39.858Z,18.40
2019-01-23T20:20:45.300Z,16.80
2019-01-23T20:25:51.133Z,18.67
2019-01-23T20:30:56.572Z,19.50
2019-01-23T20:36:02.099Z,17.47
2019-01-23T20:41:08.250Z,17.63
2019-01-23T20:46:13.747Z,18.00
2019-01-23T20:51:19.360Z,18.57
2019-01-23T20:56:25.196Z,21.03
2019-01-23T21:01:30.747Z,17.10
2019-01-23T21:06:36.662Z,20.27
2019-01-23T21:11:42.177Z,18.47
2019-01-23T21:16:49.801Z,19.50
2019-01-23T21:21:55.339Z,19.50
2019-01-23T21:27:01.199Z,19.60
2019-01-23T21:32:06.677Z,18.33
2019-01-23T21:37:12.826Z,20.10
2019-01-23T21:42:18.304Z,16.13
2019-01-23T21:47:24.120Z,17.70
2019-01-23T21:52:30.023Z,18.33
2019-01-23T21:57:35.867Z,19.43
2019-01-23T22:02:42.102Z,18.73
2019-01-23T22:07:47.633Z,19.67
2019-01-23T22:12:53.445Z,19.73
2019-01-23T22:17:59.335Z,18.30
2019-01-23T22:23:04.876Z,21.00
2019-01-23T22:28:10.987Z,19.93
2019-01-23T22:33:16.486Z,19.07
2019-01-23T22:38:22.248Z,17.83
2019-01-23T22:43:27.725Z,17.87
2019-01-23T22:48:33.174Z,19.40
2019-01-23T22:53:38.622Z,19.17
2019-01-23T22:58:44.762Z,19.53
2019-01-23T23:03:50.518Z,19.13
2019-01-23T23:08:56.275Z,17.03
2019-01-23T23:14:02.162Z,19.27
2019-01-23T23:19:07.603Z,17.97
2019-01-23T23:24:13.440Z,20.17
2019-01-23T23:29:19.583Z,20.93
2019-01-23T23:34:25.050Z,17.50
2019-01-23T23:39:30.631Z,16.80
2019-01-23T23:44:36.142Z,19.10
2019-01-23T23:49:42.010Z,18.30
2019-01-23T23:54:47.762Z,17.33
2019-01-23T23:59:53.378Z,15.60
